createdAt,value
2022-09-02T00:00:05.052Z,78.73
2022-09-02T00:01:05.371Z,78.83
2022-09-02T00:02:05.799Z,78.83
2022-09-02T00:03:06.136Z,78.83
2022-09-02T00:04:06.321Z,78.83
2022-09-02T00:05:06.629Z,78.73
2022-09-02T00:06:06.941Z,78.63
2022-09-02T00:07:07.261Z,78.63
2022-09-02T00:08:08.451Z,78.53
2022-09-02T00:09:07.821Z,78.63
2022-09-02T00:10:08.142Z,78.53
2022-09-02T00:11:08.455Z,78.53
2022-09-02T00:12:08.785Z,78.53
2022-09-02T00:13:09.092Z,78.46
2022-09-02T00:14:10.264Z,78.46
2022-09-02T00:15:09.663Z,78.46
2022-09-02T00:16:10.027Z,78.56
2022-09-02T00:17:10.263Z,78.66
2022-09-02T00:18:15.232Z,78.77
2022-09-02T00:19:11.854Z,78.97
2022-09-02T00:20:11.149Z,78.97
2022-09-02T00:21:11.441Z,78.97
2022-09-02T00:22:11.758Z,78.97
2022-09-02T00:23:12.087Z,78.97
2022-09-02T00:24:12.418Z,78.97
2022-09-02T00:25:12.727Z,78.87
2022-09-02T00:26:13.049Z,78.77
2022-09-02T00:27:13.377Z,78.77
2022-09-02T00:28:13.695Z,78.77
2022-09-02T00:29:13.958Z,78.77
2022-09-02T00:30:14.277Z,78.77
2022-09-02T00:31:14.606Z,78.77
2022-09-02T00:32:14.936Z,78.77
2022-09-02T00:33:16.090Z,78.87
2022-09-02T00:34:15.589Z,78.77
2022-09-02T00:35:15.908Z,78.66
2022-09-02T00:36:16.228Z,78.77
2022-09-02T00:37:16.581Z,78.77
2022-09-02T00:38:16.891Z,78.77
2022-09-02T00:39:17.221Z,78.66
2022-09-02T00:40:17.706Z,78.66
2022-09-02T00:41:17.860Z,78.66
2022-09-02T00:42:18.191Z,78.66
2022-09-02T00:43:18.506Z,78.66
2022-09-02T00:44:18.835Z,78.56
2022-09-02T00:45:19.148Z,78.46
2022-09-02T00:46:19.511Z,78.46
2022-09-02T00:47:19.804Z,78.36
2022-09-02T00:48:20.128Z,78.36
2022-09-02T00:49:20.442Z,78.26
2022-09-02T00:50:20.792Z,78.16
2022-09-02T00:51:21.124Z,78.16
2022-09-02T00:52:21.446Z,78.05
2022-09-02T00:53:21.773Z,78.05
2022-09-02T00:54:21.964Z,78.16
2022-09-02T00:55:22.285Z,78.26
2022-09-02T00:56:22.645Z,78.16
2022-09-02T00:57:22.935Z,78.30
2022-09-02T00:58:23.275Z,78.30
2022-09-02T00:59:23.586Z,78.30
2022-09-02T01:00:23.906Z,78.30
2022-09-02T01:01:24.723Z,78.19
2022-09-02T01:02:24.595Z,78.19
2022-09-02T01:03:24.795Z,78.19
2022-09-02T01:04:25.117Z,78.19
2022-09-02T01:05:25.435Z,78.19
2022-09-02T01:06:25.800Z,78.19
2022-09-02T01:07:26.095Z,78.30
2022-09-02T01:08:26.415Z,78.39
2022-09-02T01:09:26.736Z,78.39
2022-09-02T01:10:27.104Z,78.50
2022-09-02T01:11:27.483Z,78.50
2022-09-02T01:12:27.700Z,78.50
2022-09-02T01:13:28.023Z,78.60
2022-09-02T01:14:28.715Z,78.64
2022-09-02T01:15:28.512Z,78.84
2022-09-02T01:16:28.892Z,78.94
2022-09-02T01:17:29.100Z,79.04
2022-09-02T01:18:29.417Z,79.25
2022-09-02T01:19:29.743Z,79.25
2022-09-02T01:20:30.105Z,79.35
2022-09-02T01:21:30.455Z,79.35
2022-09-02T01:22:30.768Z,79.35
2022-09-02T01:23:32.383Z,79.25
2022-09-02T01:24:31.402Z,79.25
2022-09-02T01:25:31.628Z,79.14
2022-09-02T01:26:31.956Z,79.04
2022-09-02T01:27:32.280Z,79.04
2022-09-02T01:28:32.605Z,79.04
2022-09-02T01:29:33.006Z,78.94
2022-09-02T01:30:33.235Z,78.94
2022-09-02T01:31:33.621Z,78.94
2022-09-02T01:32:33.842Z,79.08
2022-09-02T01:33:34.170Z,79.08
2022-09-02T01:34:34.499Z,79.18
2022-09-02T01:35:34.691Z,79.25
2022-09-02T01:36:35.141Z,79.25
2022-09-02T01:37:35.339Z,79.04
2022-09-02T01:38:35.660Z,79.14
2022-09-02T01:39:36.000Z,79.18
2022-09-02T01:40:36.396Z,79.18
2022-09-02T01:41:36.628Z,79.28
2022-09-02T01:42:36.949Z,79.39
2022-09-02T01:43:37.273Z,79.39
2022-09-02T01:44:37.623Z,79.59
2022-09-02T01:45:37.945Z,79.69
2022-09-02T01:46:38.320Z,79.69
2022-09-02T01:47:38.521Z,79.80
2022-09-02T01:48:38.861Z,79.69
2022-09-02T01:49:39.181Z,79.59
2022-09-02T01:50:43.750Z,79.59
2022-09-02T01:51:40.842Z,79.59
2022-09-02T01:52:40.102Z,79.69
2022-09-02T01:53:40.443Z,79.69
2022-09-02T01:54:40.766Z,79.59
2022-09-02T01:55:41.105Z,79.49
2022-09-02T01:56:41.443Z,79.59
2022-09-02T01:57:41.664Z,79.49
2022-09-02T01:58:42.005Z,79.59
2022-09-02T01:59:42.332Z,79.80
2022-09-02T02:00:43.548Z,79.80
2022-09-02T02:01:43.043Z,79.90
2022-09-02T02:02:43.428Z,79.90
2022-09-02T02:03:43.587Z,80.04
2022-09-02T02:04:43.954Z,80.04
2022-09-02T02:05:44.154Z,80.14
2022-09-02T02:06:44.485Z,80.24
2022-09-02T02:07:44.818Z,80.24
2022-09-02T02:08:45.142Z,80.24
2022-09-02T02:09:45.545Z,80.24
2022-09-02T02:10:45.869Z,80.24
2022-09-02T02:11:46.106Z,80.24
2022-09-02T02:12:46.467Z,80.14
2022-09-02T02:13:46.679Z,80.04
2022-09-02T02:14:47.018Z,79.93
2022-09-02T02:15:47.406Z,79.63
2022-09-02T02:16:47.628Z,79.52
2022-09-02T02:17:47.869Z,79.43
2022-09-02T02:18:48.080Z,79.32
2022-09-02T02:19:48.519Z,79.32
2022-09-02T02:20:48.780Z,79.32
2022-09-02T02:21:48.997Z,79.36
2022-09-02T02:22:49.319Z,79.36
2022-09-02T02:23:49.660Z,79.46
2022-09-02T02:24:50.051Z,79.57
2022-09-02T02:25:50.268Z,79.66
2022-09-02T02:26:50.679Z,79.66
2022-09-02T02:27:50.921Z,79.52
2022-09-02T02:28:51.248Z,79.52
2022-09-02T02:29:51.579Z,79.52
2022-09-02T02:30:51.892Z,79.52
2022-09-02T02:31:52.204Z,79.52
2022-09-02T02:32:52.562Z,79.43
2022-09-02T02:33:52.773Z,79.32
2022-09-02T02:34:53.102Z,79.43
2022-09-02T02:35:53.453Z,79.52
2022-09-02T02:36:53.767Z,79.52
2022-09-02T02:37:54.121Z,79.63
2022-09-02T02:38:54.432Z,79.73
2022-09-02T02:39:54.813Z,79.83
2022-09-02T02:40:55.053Z,79.83
2022-09-02T02:41:56.226Z,79.83
2022-09-02T02:42:55.614Z,79.93
2022-09-02T02:43:55.946Z,79.93
2022-09-02T02:44:56.297Z,79.93
2022-09-02T02:45:56.626Z,79.93
2022-09-02T02:46:57.020Z,80.07
2022-09-02T02:47:57.276Z,80.28
2022-09-02T02:48:57.498Z,80.38
2022-09-02T02:49:57.936Z,80.48
2022-09-02T02:50:58.146Z,80.65
2022-09-02T02:51:58.497Z,80.85
2022-09-02T02:52:58.722Z,81.10
2022-09-02T02:53:59.179Z,81.16
2022-09-02T02:54:59.376Z,81.37
2022-09-02T02:55:59.729Z,81.57
2022-09-02T02:56:59.957Z,81.57
2022-09-02T02:58:00.257Z,81.87
2022-09-02T02:59:00.599Z,81.77
2022-09-02T03:00:00.936Z,82.01
2022-09-02T03:01:01.251Z,82.12
2022-09-02T03:02:01.693Z,82.42
2022-09-02T03:03:02.037Z,82.53
2022-09-02T03:04:02.199Z,82.73
2022-09-02T03:05:02.545Z,82.93
2022-09-02T03:06:02.861Z,82.93
2022-09-02T03:07:03.197Z,82.93
2022-09-02T03:08:03.541Z,83.04
2022-09-02T03:09:03.861Z,83.04
2022-09-02T03:10:04.219Z,83.24
2022-09-02T03:11:04.440Z,83.38
2022-09-02T03:12:04.773Z,83.34
2022-09-02T03:13:05.022Z,83.44
2022-09-02T03:14:05.351Z,83.69
2022-09-02T03:15:05.703Z,83.79
2022-09-02T03:16:06.086Z,83.89
2022-09-02T03:17:06.274Z,83.79
2022-09-02T03:18:06.593Z,83.79
2022-09-02T03:19:06.952Z,83.89
2022-09-02T03:20:07.212Z,83.89
2022-09-02T03:21:07.466Z,84.00
2022-09-02T03:22:07.663Z,84.00
2022-09-02T03:23:07.978Z,83.89
2022-09-02T03:24:08.359Z,83.79
2022-09-02T03:25:09.074Z,83.79
2022-09-02T03:26:08.855Z,83.59
2022-09-02T03:27:09.056Z,83.34
2022-09-02T03:28:09.457Z,83.34
2022-09-02T03:29:09.716Z,83.34
2022-09-02T03:30:09.966Z,83.18
2022-09-02T03:31:10.290Z,83.28
2022-09-02T03:32:10.488Z,83.28
2022-09-02T03:33:10.756Z,83.28
2022-09-02T03:34:11.117Z,83.18
2022-09-02T03:35:11.336Z,83.18
2022-09-02T03:36:11.673Z,83.14
2022-09-02T03:37:12.014Z,83.07
2022-09-02T03:38:12.337Z,82.93
2022-09-02T03:39:12.660Z,82.83
2022-09-02T03:40:13.095Z,82.63
2022-09-02T03:41:13.312Z,82.42
2022-09-02T03:42:19.787Z,82.42
2022-09-02T03:43:14.941Z,82.42
2022-09-02T03:44:14.209Z,82.32
2022-09-02T03:45:14.549Z,82.22
2022-09-02T03:46:14.913Z,82.22
2022-09-02T03:47:15.180Z,82.12
2022-09-02T03:48:15.507Z,82.01
2022-09-02T03:49:15.867Z,81.91
2022-09-02T03:50:16.080Z,81.91
2022-09-02T03:51:16.393Z,81.91
2022-09-02T03:52:16.742Z,81.91
2022-09-02T03:53:19.853Z,81.91
2022-09-02T03:54:17.373Z,81.91
2022-09-02T03:55:17.612Z,81.91
2022-09-02T03:56:17.884Z,81.91
2022-09-02T03:57:18.212Z,81.81
2022-09-02T03:58:18.512Z,81.81
2022-09-02T03:59:18.865Z,81.71
2022-09-02T04:00:19.095Z,81.65
2022-09-02T04:01:19.465Z,81.60
2022-09-02T04:02:19.854Z,81.54
2022-09-02T04:03:20.109Z,81.54
2022-09-02T04:04:22.821Z,81.54
2022-09-02T04:05:20.655Z,81.54
2022-09-02T04:06:20.883Z,81.54
2022-09-02T04:07:21.223Z,81.65
2022-09-02T04:08:21.563Z,81.74
2022-09-02T04:09:21.804Z,81.74
2022-09-02T04:10:22.061Z,81.74
2022-09-02T04:11:22.297Z,81.85
2022-09-02T04:12:22.537Z,81.85
2022-09-02T04:13:22.938Z,81.95
2022-09-02T04:14:23.107Z,81.95
2022-09-02T04:15:23.341Z,81.99
2022-09-02T04:16:23.738Z,82.09
2022-09-02T04:17:23.957Z,82.20
2022-09-02T04:18:24.190Z,82.29
2022-09-02T04:19:24.440Z,82.40
2022-09-02T04:20:24.668Z,82.50
2022-09-02T04:21:24.908Z,82.50
2022-09-02T04:22:25.137Z,82.50
2022-09-02T04:23:25.504Z,82.50
2022-09-02T04:24:25.742Z,82.60
2022-09-02T04:25:27.721Z,82.60
2022-09-02T04:26:26.298Z,82.60
2022-09-02T04:27:26.510Z,82.60
2022-09-02T04:28:26.915Z,82.60
2022-09-02T04:29:27.159Z,82.60
2022-09-02T04:30:27.449Z,82.50
2022-09-02T04:31:27.731Z,82.50
2022-09-02T04:32:27.930Z,82.50
2022-09-02T04:33:28.278Z,82.60
2022-09-02T04:34:28.651Z,82.46
2022-09-02T04:35:28.882Z,82.46
2022-09-02T04:36:29.110Z,82.26
2022-09-02T04:37:29.443Z,82.26
2022-09-02T04:38:29.673Z,82.15
2022-09-02T04:39:29.938Z,82.05
2022-09-02T04:40:30.257Z,81.95
2022-09-02T04:41:30.473Z,81.95
2022-09-02T04:42:30.833Z,81.95
2022-09-02T04:43:31.080Z,81.95
2022-09-02T04:44:31.334Z,81.95
2022-09-02T04:45:31.564Z,81.95
2022-09-02T04:46:34.974Z,81.85
2022-09-02T04:47:32.045Z,81.85
2022-09-02T04:48:32.275Z,81.85
2022-09-02T04:49:32.527Z,81.85
2022-09-02T04:50:32.785Z,81.85
2022-09-02T04:51:33.038Z,81.85
2022-09-02T04:52:33.277Z,81.95
2022-09-02T04:53:33.544Z,81.95
2022-09-02T04:54:33.808Z,81.95
2022-09-02T04:55:34.050Z,81.85
2022-09-02T04:56:34.286Z,81.85
2022-09-02T04:57:34.537Z,81.85
2022-09-02T04:58:34.788Z,81.71
2022-09-02T04:59:35.048Z,81.71
2022-09-02T05:00:35.310Z,81.71
2022-09-02T05:01:35.729Z,81.81
2022-09-02T05:02:35.903Z,81.71
2022-09-02T05:03:36.188Z,81.81
2022-09-02T05:04:36.449Z,81.71
2022-09-02T05:05:36.729Z,81.71
2022-09-02T05:06:40.649Z,81.60
2022-09-02T05:07:38.301Z,81.71
2022-09-02T05:08:37.635Z,81.60
2022-09-02T05:09:37.925Z,81.60
2022-09-02T05:10:38.169Z,81.60
2022-09-02T05:11:38.441Z,81.51
2022-09-02T05:12:38.671Z,81.51
2022-09-02T05:13:38.941Z,81.51
2022-09-02T05:14:39.203Z,81.60
2022-09-02T05:15:39.488Z,81.60
2022-09-02T05:16:39.703Z,81.57
2022-09-02T05:17:39.958Z,81.57
2022-09-02T05:18:40.242Z,81.46
2022-09-02T05:19:40.493Z,81.12
2022-09-02T05:20:40.751Z,80.98
2022-09-02T05:21:41.013Z,80.13
2022-09-02T05:22:41.285Z,79.14
2022-09-02T05:23:41.597Z,77.74
2022-09-02T05:24:41.846Z,76.79
2022-09-02T05:25:42.095Z,75.63
2022-09-02T05:26:42.343Z,74.68
2022-09-02T05:27:42.595Z,73.63
2022-09-02T05:28:42.901Z,72.89
2022-09-02T05:29:45.446Z,72.25
2022-09-02T05:30:43.454Z,71.20
2022-09-02T05:31:43.721Z,70.89
2022-09-02T05:32:43.975Z,70.45
2022-09-02T05:33:44.251Z,70.05
2022-09-02T05:34:44.544Z,69.84
2022-09-02T05:35:46.039Z,69.41
2022-09-02T05:36:46.138Z,69.41
2022-09-02T05:37:45.489Z,69.37
2022-09-02T05:38:45.756Z,69.27
2022-09-02T05:39:46.024Z,69.17
2022-09-02T05:40:46.421Z,68.63
2022-09-02T05:41:46.509Z,68.63
2022-09-02T05:42:47.051Z,68.63
2022-09-02T05:43:47.091Z,68.43
2022-09-02T05:44:47.394Z,68.23
2022-09-02T05:45:47.664Z,67.93
2022-09-02T05:46:49.047Z,68.23
2022-09-02T05:47:48.151Z,68.33
2022-09-02T05:48:48.415Z,68.66
2022-09-02T05:49:48.767Z,68.97
2022-09-02T05:50:50.335Z,69.07
2022-09-02T05:51:50.385Z,69.27
2022-09-02T05:52:49.695Z,69.37
2022-09-02T05:53:49.986Z,69.51
2022-09-02T05:54:50.243Z,70.15
2022-09-02T05:55:50.514Z,70.45
2022-09-02T05:56:50.778Z,70.76
2022-09-02T05:57:51.025Z,70.65
2022-09-02T05:58:51.277Z,70.96
2022-09-02T05:59:51.560Z,70.96
2022-09-02T06:00:51.838Z,71.06
2022-09-02T06:01:52.171Z,70.83
2022-09-02T06:02:52.566Z,70.42
2022-09-02T06:03:52.670Z,70.32
2022-09-02T06:04:52.916Z,70.52
2022-09-02T06:05:53.182Z,70.52
2022-09-02T06:06:53.421Z,70.72
2022-09-02T06:07:53.690Z,70.52
2022-09-02T06:08:53.943Z,70.76
2022-09-02T06:09:54.195Z,70.96
2022-09-02T06:10:54.486Z,71.40
2022-09-02T06:11:54.737Z,71.70
2022-09-02T06:12:55.003Z,71.91
2022-09-02T06:13:55.253Z,72.01
2022-09-02T06:14:55.506Z,71.91
2022-09-02T06:15:55.758Z,72.21
2022-09-02T06:16:56.044Z,72.41
2022-09-02T06:17:56.300Z,72.41
2022-09-02T06:18:56.590Z,72.52
2022-09-02T06:19:56.825Z,72.65
2022-09-02T06:20:57.086Z,73.16
2022-09-02T06:21:57.317Z,73.26
2022-09-02T06:22:57.602Z,73.70
2022-09-02T06:23:57.835Z,74.21
2022-09-02T06:24:58.078Z,74.65
2022-09-02T06:25:58.351Z,75.26
2022-09-02T06:26:58.606Z,75.70
2022-09-02T06:27:58.930Z,76.21
2022-09-02T06:28:59.219Z,76.51
2022-09-02T06:29:59.468Z,76.82
2022-09-02T06:30:59.741Z,77.16
2022-09-02T06:31:59.981Z,77.47
2022-09-02T06:33:00.253Z,77.67
2022-09-02T06:34:00.512Z,77.97
2022-09-02T06:35:00.783Z,78.48
2022-09-02T06:36:01.031Z,78.48
2022-09-02T06:37:01.302Z,78.78
2022-09-02T06:38:01.605Z,78.99
2022-09-02T06:39:01.861Z,79.09
2022-09-02T06:40:02.112Z,79.19
2022-09-02T06:41:02.405Z,78.99
2022-09-02T06:42:03.611Z,78.85
2022-09-02T06:43:02.903Z,78.85
2022-09-02T06:44:03.173Z,79.05
2022-09-02T06:45:03.437Z,79.16
2022-09-02T06:46:03.755Z,79.46
2022-09-02T06:47:04.038Z,79.16
2022-09-02T06:48:07.681Z,79.16
2022-09-02T06:49:04.545Z,79.16
2022-09-02T06:50:04.815Z,79.16
2022-09-02T06:51:05.066Z,79.16
2022-09-02T06:52:05.338Z,79.12
2022-09-02T06:53:05.589Z,79.22
2022-09-02T06:54:05.889Z,79.32
2022-09-02T06:55:06.159Z,79.32
2022-09-02T06:56:06.439Z,79.22
2022-09-02T06:57:06.729Z,78.91
2022-09-02T06:58:07.012Z,78.61
2022-09-02T06:59:07.289Z,78.51
2022-09-02T07:00:07.559Z,78.27
2022-09-02T07:01:07.916Z,77.90
2022-09-02T07:02:08.356Z,77.66
2022-09-02T07:03:08.424Z,77.66
2022-09-02T07:04:08.771Z,77.36
2022-09-02T07:05:08.901Z,77.25
2022-09-02T07:06:09.187Z,77.15
2022-09-02T07:07:09.442Z,77.05
2022-09-02T07:08:09.702Z,76.85
2022-09-02T07:09:09.951Z,76.85
2022-09-02T07:10:10.212Z,76.95
2022-09-02T07:11:10.483Z,77.15
2022-09-02T07:12:10.738Z,77.25
2022-09-02T07:13:11.180Z,77.25
2022-09-02T07:14:11.245Z,77.25
2022-09-02T07:15:11.483Z,77.25
2022-09-02T07:16:11.804Z,77.15
2022-09-02T07:17:13.150Z,77.15
2022-09-02T07:18:12.372Z,77.15
2022-09-02T07:19:16.131Z,77.42
2022-09-02T07:20:13.963Z,77.42
2022-09-02T07:21:13.253Z,77.01
2022-09-02T07:22:13.577Z,76.91
2022-09-02T07:23:14.868Z,77.01
2022-09-02T07:24:14.044Z,76.91
2022-09-02T07:25:14.297Z,76.91
2022-09-02T07:26:14.573Z,77.12
2022-09-02T07:27:14.831Z,77.01
2022-09-02T07:28:15.069Z,77.01
2022-09-02T07:29:15.350Z,77.12
2022-09-02T07:30:15.597Z,77.01
2022-09-02T07:31:15.963Z,76.87
2022-09-02T07:32:16.098Z,76.57
2022-09-02T07:33:16.341Z,76.27
2022-09-02T07:34:16.589Z,76.37
2022-09-02T07:35:16.855Z,76.67
2022-09-02T07:36:17.107Z,76.67
2022-09-02T07:37:17.351Z,76.47
2022-09-02T07:38:17.627Z,76.37
2022-09-02T07:39:17.850Z,75.35
2022-09-02T07:40:18.185Z,75.15
2022-09-02T07:41:18.331Z,75.12
2022-09-02T07:42:18.603Z,75.12
2022-09-02T07:43:18.915Z,75.32
2022-09-02T07:44:19.133Z,75.12
2022-09-02T07:45:19.388Z,75.12
2022-09-02T07:46:19.730Z,75.12
2022-09-02T07:47:19.872Z,75.12
2022-09-02T07:48:20.165Z,75.22
2022-09-02T07:49:23.967Z,74.81
2022-09-02T07:50:21.721Z,74.81
2022-09-02T07:51:20.935Z,74.91
2022-09-02T07:52:21.285Z,75.18
2022-09-02T07:53:21.672Z,75.08
2022-09-02T07:54:21.697Z,74.98
2022-09-02T07:55:22.039Z,75.08
2022-09-02T07:56:22.355Z,74.98
2022-09-02T07:57:22.540Z,74.68
2022-09-02T07:58:22.785Z,74.88
2022-09-02T07:59:23.138Z,74.88
2022-09-02T08:00:23.466Z,74.77
2022-09-02T08:01:24.014Z,74.68
2022-09-02T08:02:23.974Z,74.84
2022-09-02T08:03:24.996Z,75.15
2022-09-02T08:04:24.480Z,74.95
2022-09-02T08:05:24.747Z,74.33
2022-09-02T08:06:34.820Z,73.63
2022-09-02T08:07:26.315Z,73.63
2022-09-02T08:08:25.705Z,73.73
2022-09-02T08:09:25.948Z,73.83
2022-09-02T08:10:26.213Z,74.04
2022-09-02T08:11:26.465Z,74.04
2022-09-02T08:12:26.716Z,74.04
2022-09-02T08:13:27.427Z,73.93
2022-09-02T08:14:27.324Z,73.73
2022-09-02T08:15:27.537Z,73.59
2022-09-02T08:16:27.856Z,73.49
2022-09-02T08:17:28.128Z,73.49
2022-09-02T08:18:28.362Z,73.19
2022-09-02T08:19:28.622Z,73.39
2022-09-02T08:20:28.920Z,73.80
2022-09-02T08:21:29.179Z,73.90
2022-09-02T08:22:29.539Z,73.80
2022-09-02T08:23:37.797Z,73.49
2022-09-02T08:24:31.112Z,73.49
2022-09-02T08:25:30.441Z,73.19
2022-09-02T08:26:30.771Z,73.15
2022-09-02T08:27:31.022Z,72.44
2022-09-02T08:28:31.284Z,71.44
2022-09-02T08:29:31.566Z,70.73
2022-09-02T08:30:31.843Z,70.62
2022-09-02T08:31:32.241Z,70.93
2022-09-02T08:32:32.326Z,71.84
2022-09-02T08:33:32.635Z,71.73
2022-09-02T08:34:32.883Z,71.53
2022-09-02T08:35:33.599Z,71.64
2022-09-02T08:36:33.383Z,71.09
2022-09-02T08:37:33.640Z,71.40
2022-09-02T08:38:33.944Z,72.01
2022-09-02T08:39:34.245Z,71.00
2022-09-02T08:40:34.894Z,71.30
2022-09-02T08:41:34.927Z,70.89
2022-09-02T08:42:39.037Z,71.30
2022-09-02T08:43:35.358Z,71.50
2022-09-02T08:44:35.641Z,71.70
2022-09-02T08:45:35.899Z,71.47
2022-09-02T08:46:36.068Z,71.47
2022-09-02T08:47:36.527Z,71.87
2022-09-02T08:48:36.606Z,72.28
2022-09-02T08:49:36.901Z,72.17
2022-09-02T08:50:37.325Z,71.57
2022-09-02T08:51:37.939Z,71.57
2022-09-02T08:52:37.824Z,71.57
2022-09-02T08:53:37.961Z,71.37
2022-09-02T08:54:38.415Z,71.37
2022-09-02T08:55:38.612Z,71.57
2022-09-02T08:56:38.921Z,71.67
2022-09-02T08:57:43.485Z,71.53
2022-09-02T08:58:40.519Z,71.33
2022-09-02T09:00:40.514Z,71.33
2022-09-02T09:01:40.231Z,71.53
2022-09-02T09:02:45.958Z,71.03
2022-09-02T09:03:41.745Z,70.53
2022-09-02T09:04:41.094Z,70.32
2022-09-02T09:05:41.476Z,70.22
2022-09-02T09:06:41.906Z,70.22
2022-09-02T09:07:41.955Z,68.40
2022-09-02T09:08:42.589Z,68.51
2022-09-02T09:09:42.840Z,68.71
2022-09-02T09:10:42.908Z,69.01
2022-09-02T09:11:43.193Z,68.87
2022-09-02T09:12:43.538Z,68.98
2022-09-02T09:13:43.848Z,69.18
2022-09-02T09:14:44.061Z,69.48
2022-09-02T09:15:44.309Z,69.08
2022-09-02T09:16:45.101Z,68.47
2022-09-02T09:17:44.970Z,67.36
2022-09-02T09:18:45.071Z,66.86
2022-09-02T09:19:53.094Z,67.36
2022-09-02T09:20:45.679Z,67.43
2022-09-02T09:21:45.980Z,67.02
2022-09-02T09:22:46.260Z,67.02
2022-09-02T09:23:46.534Z,67.43
2022-09-02T09:24:46.813Z,67.13
2022-09-02T09:25:47.090Z,66.72
2022-09-02T09:26:47.372Z,67.02
2022-09-02T09:27:47.666Z,67.53
2022-09-02T09:28:48.690Z,67.19
2022-09-02T09:29:48.203Z,67.19
2022-09-02T09:30:48.595Z,67.40
2022-09-02T09:31:48.899Z,66.79
2022-09-02T09:32:49.174Z,66.59
2022-09-02T09:33:49.485Z,65.18
2022-09-02T09:34:49.766Z,64.27
2022-09-02T09:35:50.045Z,63.46
2022-09-02T09:36:50.286Z,63.26
2022-09-02T09:37:50.550Z,63.56
2022-09-02T09:38:50.800Z,64.24
2022-09-02T09:39:51.077Z,63.53
2022-09-02T09:40:51.434Z,63.73
2022-09-02T09:41:51.553Z,63.93
2022-09-02T09:42:51.914Z,64.44
2022-09-02T09:43:52.167Z,63.70
2022-09-02T09:44:52.411Z,63.60
2022-09-02T09:45:52.747Z,62.70
2022-09-02T09:46:53.002Z,62.09
2022-09-02T09:47:58.354Z,62.09
2022-09-02T09:48:54.623Z,62.49
2022-09-02T09:49:53.820Z,61.18
2022-09-02T09:50:54.070Z,61.36
2022-09-02T09:51:54.312Z,61.46
2022-09-02T09:52:54.562Z,59.84
2022-09-02T09:53:54.812Z,59.75
2022-09-02T09:54:55.074Z,60.15
2022-09-02T09:55:55.322Z,60.22
2022-09-02T09:56:56.514Z,59.52
2022-09-02T09:57:55.836Z,59.52
2022-09-02T09:58:56.173Z,59.72
2022-09-02T09:59:56.333Z,60.32
2022-09-02T10:00:56.652Z,58.81
2022-09-02T10:01:56.936Z,58.21
2022-09-02T10:02:57.163Z,58.81
2022-09-02T10:03:57.437Z,57.50
2022-09-02T10:04:57.706Z,58.11
2022-09-02T10:05:58.031Z,58.81
2022-09-02T10:06:58.328Z,59.01
2022-09-02T10:07:58.733Z,60.12
2022-09-02T10:08:58.831Z,60.29
2022-09-02T10:09:59.123Z,58.68
2022-09-02T10:10:59.361Z,59.48
2022-09-02T10:11:59.691Z,59.19
2022-09-02T10:12:59.970Z,59.46
2022-09-02T10:14:00.258Z,59.56
2022-09-02T10:15:00.559Z,58.75
2022-09-02T10:16:00.893Z,58.05
2022-09-02T10:17:01.160Z,58.38
2022-09-02T10:18:01.561Z,58.98
2022-09-02T10:19:01.745Z,58.48
2022-09-02T10:20:04.679Z,57.78
2022-09-02T10:21:14.787Z,57.81
2022-09-02T10:22:04.219Z,58.31
2022-09-02T10:23:02.748Z,58.58
2022-09-02T10:24:03.955Z,57.88
2022-09-02T10:25:03.352Z,58.25
2022-09-02T10:26:03.622Z,57.75
2022-09-02T10:27:03.885Z,57.24
2022-09-02T10:28:04.264Z,57.15
2022-09-02T10:29:04.511Z,56.84
2022-09-02T10:30:04.662Z,55.33
2022-09-02T10:31:04.997Z,55.91
2022-09-02T10:32:05.240Z,56.31
2022-09-02T10:33:05.593Z,57.12
2022-09-02T10:34:05.760Z,56.31
2022-09-02T10:35:06.093Z,57.50
2022-09-02T10:36:06.340Z,56.19
2022-09-02T10:37:06.667Z,57.50
2022-09-02T10:38:06.961Z,56.38
2022-09-02T10:39:07.212Z,56.09
2022-09-02T10:40:07.583Z,56.59
2022-09-02T10:41:07.684Z,56.38
2022-09-02T10:42:07.986Z,56.38
2022-09-02T10:43:08.273Z,56.79
2022-09-02T10:44:08.554Z,56.09
2022-09-02T10:45:08.832Z,57.06
2022-09-02T10:46:09.084Z,56.26
2022-09-02T10:47:09.314Z,56.36
2022-09-02T10:48:09.545Z,56.13
2022-09-02T10:49:09.831Z,56.84
2022-09-02T10:50:10.101Z,56.54
2022-09-02T10:51:10.366Z,56.43
2022-09-02T10:52:10.653Z,56.54
2022-09-02T10:53:10.942Z,55.53
2022-09-02T10:54:11.225Z,54.25
2022-09-02T10:55:11.501Z,53.95
2022-09-02T10:56:11.747Z,53.67
2022-09-02T10:57:11.993Z,54.78
2022-09-02T10:58:12.249Z,55.88
2022-09-02T10:59:12.527Z,55.68
2022-09-02T11:00:13.738Z,55.58
2022-09-02T11:01:13.172Z,55.31
2022-09-02T11:02:13.420Z,55.61
2022-09-02T11:03:13.750Z,55.81
2022-09-02T11:04:14.010Z,55.88
2022-09-02T11:05:14.250Z,56.38
2022-09-02T11:06:14.557Z,57.09
2022-09-02T11:07:15.016Z,56.79
2022-09-02T11:08:15.140Z,56.79
2022-09-02T11:09:15.456Z,56.29
2022-09-02T11:10:15.803Z,55.79
2022-09-02T11:11:16.054Z,56.99
2022-09-02T11:12:16.351Z,54.08
2022-09-02T11:13:16.657Z,53.57
2022-09-02T11:14:16.933Z,53.97
2022-09-02T11:15:17.247Z,54.88
2022-09-02T11:16:17.599Z,54.28
2022-09-02T11:17:17.714Z,54.35
2022-09-02T11:18:18.000Z,53.25
2022-09-02T11:19:18.415Z,54.05
2022-09-02T11:20:18.597Z,54.15
2022-09-02T11:21:18.880Z,54.35
2022-09-02T11:22:19.185Z,54.72
2022-09-02T11:23:19.604Z,54.72
2022-09-02T11:24:19.701Z,54.22
2022-09-02T11:25:20.186Z,54.53
2022-09-02T11:26:22.969Z,54.63
2022-09-02T11:27:39.046Z,54.40
2022-09-02T11:28:23.056Z,53.70
2022-09-02T11:29:21.261Z,54.13
2022-09-02T11:30:21.603Z,53.22
2022-09-02T11:31:21.906Z,52.92
2022-09-02T11:32:22.175Z,52.62
2022-09-02T11:33:22.558Z,52.24
2022-09-02T11:34:22.841Z,52.51
2022-09-02T11:35:23.006Z,53.32
2022-09-02T11:36:23.265Z,53.82
2022-09-02T11:37:23.555Z,53.42
2022-09-02T11:38:23.845Z,53.00
2022-09-02T11:39:36.236Z,52.69
2022-09-02T11:40:34.229Z,52.69
2022-09-02T11:41:35.933Z,53.30
2022-09-02T11:42:25.871Z,52.77
2022-09-02T11:43:25.212Z,52.26
2022-09-02T11:44:27.043Z,51.87
2022-09-02T11:45:25.801Z,52.07
2022-09-02T11:46:26.132Z,51.37
2022-09-02T11:47:26.421Z,50.36
2022-09-02T11:48:26.685Z,50.26
2022-09-02T11:49:26.984Z,50.76
2022-09-02T11:50:28.051Z,51.67
2022-09-02T11:51:28.529Z,51.26
2022-09-02T11:52:27.763Z,49.76
2022-09-02T11:53:28.365Z,49.36
2022-09-02T11:54:28.451Z,49.86
2022-09-02T11:55:28.584Z,49.88
2022-09-02T11:56:28.871Z,49.18
2022-09-02T11:57:29.126Z,49.28
2022-09-02T11:58:29.469Z,49.48
2022-09-02T11:59:30.497Z,50.18
2022-09-02T12:00:30.036Z,50.79
2022-09-02T12:01:30.297Z,51.09
2022-09-02T12:02:30.715Z,51.79
2022-09-02T12:04:06.838Z,51.49
2022-09-02T12:05:32.593Z,50.99
2022-09-02T12:06:31.922Z,51.19
2022-09-02T12:07:32.114Z,51.67
2022-09-02T12:08:32.243Z,51.17
2022-09-02T12:09:32.633Z,51.06
2022-09-02T12:10:32.820Z,51.26
2022-09-02T12:11:34.970Z,51.17
2022-09-02T12:12:33.417Z,50.46
2022-09-02T12:13:33.751Z,50.96
2022-09-02T12:14:34.117Z,51.06
2022-09-02T12:15:34.275Z,50.76
2022-09-02T12:16:34.493Z,50.96
2022-09-02T12:17:34.811Z,50.36
2022-09-02T12:18:34.995Z,49.96
2022-09-02T12:19:35.425Z,50.46
2022-09-02T12:20:35.758Z,50.06
2022-09-02T12:21:36.060Z,49.86
2022-09-02T12:22:36.527Z,50.36
2022-09-02T12:23:37.952Z,50.66
2022-09-02T12:24:38.268Z,49.93
2022-09-02T12:25:37.430Z,49.54
2022-09-02T12:26:37.774Z,50.34
2022-09-02T12:27:37.831Z,50.71
2022-09-02T12:28:38.104Z,50.42
2022-09-02T12:29:39.800Z,49.51
2022-09-02T12:30:38.751Z,48.51
2022-09-02T12:31:39.076Z,48.41
2022-09-02T12:32:39.316Z,49.71
2022-09-02T12:33:39.696Z,49.91
2022-09-02T12:34:39.987Z,50.62
2022-09-02T12:35:41.040Z,50.11
2022-09-02T12:36:40.704Z,50.19
2022-09-02T12:37:40.872Z,49.69
2022-09-02T12:38:41.156Z,49.79
2022-09-02T12:39:41.367Z,49.08
2022-09-02T12:40:41.673Z,48.79
2022-09-02T12:41:41.923Z,48.69
2022-09-02T12:42:42.223Z,47.58
2022-09-02T12:43:42.485Z,48.11
2022-09-02T12:44:42.755Z,48.11
2022-09-02T12:45:43.027Z,47.11
2022-09-02T12:46:43.359Z,47.91
2022-09-02T12:47:43.585Z,47.41
2022-09-02T12:48:43.997Z,47.81
2022-09-02T12:49:44.293Z,48.11
2022-09-02T12:50:44.488Z,48.43
2022-09-02T12:51:44.781Z,48.53
2022-09-02T12:52:45.072Z,47.93
2022-09-02T12:53:45.334Z,48.73
2022-09-02T12:54:45.610Z,48.43
2022-09-02T12:55:45.871Z,49.04
2022-09-02T12:56:46.142Z,49.43
2022-09-02T12:57:46.431Z,47.83